sensor_id;sensor_type;location;lat;lon;timestamp;P1;durP1;ratioP1;P2;durP2;ratioP2
18170;SDS011;9210;48.358;10.902;2022-09-09T00:01:59;5.40;;;2.13;;
18170;SDS011;9210;48.358;10.902;2022-09-09T00:04:30;3.13;;;2.03;;
18170;SDS011;9210;48.358;10.902;2022-09-09T00:07:00;7.30;;;2.10;;
18170;SDS011;9210;48.358;10.902;2022-09-09T00:09:30;4.93;;;2.00;;
18170;SDS011;9210;48.358;10.902;2022-09-09T00:12:00;5.23;;;2.00;;
18170;SDS011;9210;48.358;10.902;2022-09-09T00:14:34;5.17;;;2.23;;
18170;SDS011;9210;48.358;10.902;2022-09-09T00:17:06;5.40;;;2.50;;
18170;SDS011;9210;48.358;10.902;2022-09-09T00:19:38;5.37;;;2.07;;
18170;SDS011;9210;48.358;10.902;2022-09-09T00:22:14;5.30;;;2.40;;
18170;SDS011;9210;48.358;10.902;2022-09-09T00:24:44;4.53;;;2.10;;
18170;SDS011;9210;48.358;10.902;2022-09-09T00:27:19;4.87;;;2.20;;
18170;SDS011;9210;48.358;10.902;2022-09-09T00:29:51;4.40;;;2.10;;
18170;SDS011;9210;48.358;10.902;2022-09-09T00:32:22;7.90;;;2.30;;
18170;SDS011;9210;48.358;10.902;2022-09-09T00:34:55;6.97;;;2.20;;
18170;SDS011;9210;48.358;10.902;2022-09-09T00:37:25;6.80;;;2.60;;
18170;SDS011;9210;48.358;10.902;2022-09-09T00:39:53;7.53;;;2.30;;
18170;SDS011;9210;48.358;10.902;2022-09-09T00:42:24;6.70;;;2.67;;
18170;SDS011;9210;48.358;10.902;2022-09-09T00:44:56;11.00;;;2.80;;
18170;SDS011;9210;48.358;10.902;2022-09-09T00:47:35;4.30;;;2.40;;
18170;SDS011;9210;48.358;10.902;2022-09-09T00:50:12;5.43;;;2.50;;
18170;SDS011;9210;48.358;10.902;2022-09-09T00:52:44;6.57;;;2.67;;
18170;SDS011;9210;48.358;10.902;2022-09-09T00:55:19;6.70;;;2.40;;
18170;SDS011;9210;48.358;10.902;2022-09-09T00:57:50;4.37;;;2.70;;
18170;SDS011;9210;48.358;10.902;2022-09-09T01:00:21;4.03;;;2.30;;
18170;SDS011;9210;48.358;10.902;2022-09-09T01:05:44;4.10;;;2.50;;
18170;SDS011;9210;48.358;10.902;2022-09-09T01:08:18;6.40;;;2.30;;
18170;SDS011;9210;48.358;10.902;2022-09-09T01:10:53;6.20;;;2.30;;
18170;SDS011;9210;48.358;10.902;2022-09-09T01:13:27;5.83;;;2.20;;
18170;SDS011;9210;48.358;10.902;2022-09-09T01:15:59;4.00;;;2.00;;
18170;SDS011;9210;48.358;10.902;2022-09-09T01:18:33;6.67;;;2.40;;
18170;SDS011;9210;48.358;10.902;2022-09-09T01:21:04;6.17;;;2.40;;
18170;SDS011;9210;48.358;10.902;2022-09-09T01:26:39;6.00;;;2.57;;
18170;SDS011;9210;48.358;10.902;2022-09-09T01:29:19;6.80;;;2.13;;
18170;SDS011;9210;48.358;10.902;2022-09-09T01:31:54;5.30;;;2.43;;
18170;SDS011;9210;48.358;10.902;2022-09-09T01:34:24;5.43;;;2.70;;
18170;SDS011;9210;48.358;10.902;2022-09-09T01:36:55;5.70;;;2.83;;
18170;SDS011;9210;48.358;10.902;2022-09-09T01:39:25;3.70;;;2.40;;
18170;SDS011;9210;48.358;10.902;2022-09-09T01:42:01;6.43;;;2.57;;
18170;SDS011;9210;48.358;10.902;2022-09-09T01:44:31;5.77;;;2.37;;
18170;SDS011;9210;48.358;10.902;2022-09-09T01:47:00;5.87;;;2.30;;
18170;SDS011;9210;48.358;10.902;2022-09-09T01:49:29;5.20;;;2.77;;
18170;SDS011;9210;48.358;10.902;2022-09-09T01:52:04;5.80;;;2.30;;
18170;SDS011;9210;48.358;10.902;2022-09-09T01:54:36;3.10;;;2.03;;
18170;SDS011;9210;48.358;10.902;2022-09-09T01:57:14;6.93;;;2.53;;
18170;SDS011;9210;48.358;10.902;2022-09-09T01:59:47;5.03;;;2.33;;
18170;SDS011;9210;48.358;10.902;2022-09-09T02:02:17;5.73;;;2.30;;
18170;SDS011;9210;48.358;10.902;2022-09-09T02:05:01;7.57;;;2.43;;
18170;SDS011;9210;48.358;10.902;2022-09-09T02:07:34;5.37;;;2.50;;
18170;SDS011;9210;48.358;10.902;2022-09-09T02:10:17;4.83;;;2.20;;
18170;SDS011;9210;48.358;10.902;2022-09-09T02:13:00;5.13;;;2.50;;
18170;SDS011;9210;48.358;10.902;2022-09-09T02:15:30;5.13;;;2.23;;
18170;SDS011;9210;48.358;10.902;2022-09-09T02:18:00;5.77;;;2.10;;
18170;SDS011;9210;48.358;10.902;2022-09-09T02:20:30;4.90;;;2.47;;
18170;SDS011;9210;48.358;10.902;2022-09-09T02:23:01;4.23;;;2.30;;
18170;SDS011;9210;48.358;10.902;2022-09-09T02:25:32;4.87;;;2.50;;
18170;SDS011;9210;48.358;10.902;2022-09-09T02:28:16;4.80;;;2.73;;
18170;SDS011;9210;48.358;10.902;2022-09-09T02:30:46;4.77;;;2.40;;
18170;SDS011;9210;48.358;10.902;2022-09-09T02:33:27;4.40;;;2.27;;
18170;SDS011;9210;48.358;10.902;2022-09-09T02:35:56;4.77;;;2.40;;
18170;SDS011;9210;48.358;10.902;2022-09-09T02:38:32;4.63;;;2.80;;
18170;SDS011;9210;48.358;10.902;2022-09-09T02:41:08;3.33;;;2.23;;
18170;SDS011;9210;48.358;10.902;2022-09-09T02:43:39;3.70;;;2.30;;
18170;SDS011;9210;48.358;10.902;2022-09-09T02:46:15;5.53;;;2.40;;
18170;SDS011;9210;48.358;10.902;2022-09-09T02:48:51;6.13;;;2.30;;
18170;SDS011;9210;48.358;10.902;2022-09-09T02:51:23;4.00;;;2.50;;
18170;SDS011;9210;48.358;10.902;2022-09-09T02:53:54;5.57;;;2.80;;
18170;SDS011;9210;48.358;10.902;2022-09-09T02:56:25;6.07;;;2.47;;
18170;SDS011;9210;48.358;10.902;2022-09-09T02:58:58;5.30;;;2.47;;
18170;SDS011;9210;48.358;10.902;2022-09-09T03:01:26;4.70;;;2.30;;
18170;SDS011;9210;48.358;10.902;2022-09-09T03:03:55;6.63;;;2.57;;
18170;SDS011;9210;48.358;10.902;2022-09-09T03:06:23;5.13;;;2.50;;
18170;SDS011;9210;48.358;10.902;2022-09-09T03:09:01;6.63;;;2.90;;
18170;SDS011;9210;48.358;10.902;2022-09-09T03:11:31;7.60;;;2.60;;
18170;SDS011;9210;48.358;10.902;2022-09-09T03:14:00;5.90;;;2.67;;
18170;SDS011;9210;48.358;10.902;2022-09-09T03:16:31;8.20;;;3.00;;
18170;SDS011;9210;48.358;10.902;2022-09-09T03:19:01;4.53;;;2.40;;
18170;SDS011;9210;48.358;10.902;2022-09-09T03:21:30;4.77;;;2.60;;
18170;SDS011;9210;48.358;10.902;2022-09-09T03:23:58;6.77;;;2.70;;
18170;SDS011;9210;48.358;10.902;2022-09-09T03:26:29;6.37;;;2.20;;
18170;SDS011;9210;48.358;10.902;2022-09-09T03:29:00;4.77;;;2.50;;
18170;SDS011;9210;48.358;10.902;2022-09-09T03:31:29;5.33;;;2.33;;
18170;SDS011;9210;48.358;10.902;2022-09-09T03:33:58;2.80;;;2.03;;
18170;SDS011;9210;48.358;10.902;2022-09-09T03:36:29;3.97;;;2.40;;
18170;SDS011;9210;48.358;10.902;2022-09-09T03:38:58;5.17;;;2.50;;
18170;SDS011;9210;48.358;10.902;2022-09-09T03:41:29;5.40;;;2.50;;
18170;SDS011;9210;48.358;10.902;2022-09-09T03:44:01;4.93;;;2.30;;
18170;SDS011;9210;48.358;10.902;2022-09-09T03:46:34;6.47;;;2.43;;
18170;SDS011;9210;48.358;10.902;2022-09-09T03:49:04;5.03;;;2.53;;
18170;SDS011;9210;48.358;10.902;2022-09-09T03:51:33;3.83;;;2.30;;
18170;SDS011;9210;48.358;10.902;2022-09-09T03:54:04;5.13;;;2.20;;
18170;SDS011;9210;48.358;10.902;2022-09-09T03:56:35;5.53;;;2.20;;
18170;SDS011;9210;48.358;10.902;2022-09-09T03:59:04;4.47;;;2.70;;
18170;SDS011;9210;48.358;10.902;2022-09-09T04:01:33;6.33;;;2.83;;
18170;SDS011;9210;48.358;10.902;2022-09-09T04:04:01;5.53;;;2.77;;
18170;SDS011;9210;48.358;10.902;2022-09-09T04:06:30;7.07;;;2.80;;
18170;SDS011;9210;48.358;10.902;2022-09-09T04:08:58;7.60;;;2.37;;
18170;SDS011;9210;48.358;10.902;2022-09-09T04:11:30;6.10;;;2.20;;
18170;SDS011;9210;48.358;10.902;2022-09-09T04:13:59;3.87;;;2.13;;
18170;SDS011;9210;48.358;10.902;2022-09-09T04:16:30;6.07;;;2.53;;
18170;SDS011;9210;48.358;10.902;2022-09-09T04:18:58;7.37;;;2.87;;
18170;SDS011;9210;48.358;10.902;2022-09-09T04:21:27;5.00;;;2.40;;
18170;SDS011;9210;48.358;10.902;2022-09-09T04:23:56;9.87;;;2.67;;
18170;SDS011;9210;48.358;10.902;2022-09-09T04:26:25;4.40;;;2.53;;
18170;SDS011;9210;48.358;10.902;2022-09-09T04:28:55;3.47;;;2.20;;
18170;SDS011;9210;48.358;10.902;2022-09-09T04:31:24;5.97;;;2.40;;
18170;SDS011;9210;48.358;10.902;2022-09-09T04:33:56;5.83;;;2.93;;
18170;SDS011;9210;48.358;10.902;2022-09-09T04:36:25;5.73;;;2.80;;
18170;SDS011;9210;48.358;10.902;2022-09-09T04:38:58;4.40;;;2.30;;
18170;SDS011;9210;48.358;10.902;2022-09-09T04:41:27;7.23;;;2.60;;
18170;SDS011;9210;48.358;10.902;2022-09-09T04:43:58;3.67;;;2.10;;
18170;SDS011;9210;48.358;10.902;2022-09-09T04:46:27;4.50;;;2.50;;
18170;SDS011;9210;48.358;10.902;2022-09-09T04:48:58;8.13;;;2.53;;
18170;SDS011;9210;48.358;10.902;2022-09-09T04:51:29;8.80;;;2.90;;
18170;SDS011;9210;48.358;10.902;2022-09-09T04:53:58;4.40;;;2.37;;
18170;SDS011;9210;48.358;10.902;2022-09-09T04:56:29;6.67;;;2.70;;
18170;SDS011;9210;48.358;10.902;2022-09-09T04:58:59;8.67;;;2.73;;
18170;SDS011;9210;48.358;10.902;2022-09-09T05:01:36;7.20;;;2.50;;
18170;SDS011;9210;48.358;10.902;2022-09-09T05:04:06;5.00;;;2.30;;
18170;SDS011;9210;48.358;10.902;2022-09-09T05:06:34;5.43;;;2.70;;
18170;SDS011;9210;48.358;10.902;2022-09-09T05:09:04;4.93;;;2.33;;
18170;SDS011;9210;48.358;10.902;2022-09-09T05:11:32;8.13;;;2.60;;
18170;SDS011;9210;48.358;10.902;2022-09-09T05:14:16;11.77;;;2.70;;
18170;SDS011;9210;48.358;10.902;2022-09-09T05:16:44;6.50;;;2.20;;
18170;SDS011;9210;48.358;10.902;2022-09-09T05:19:15;4.23;;;2.67;;
18170;SDS011;9210;48.358;10.902;2022-09-09T05:21:48;4.70;;;2.50;;
18170;SDS011;9210;48.358;10.902;2022-09-09T05:24:22;6.33;;;2.27;;
18170;SDS011;9210;48.358;10.902;2022-09-09T05:26:53;6.47;;;2.30;;
18170;SDS011;9210;48.358;10.902;2022-09-09T05:29:26;5.43;;;2.20;;
18170;SDS011;9210;48.358;10.902;2022-09-09T05:31:55;4.57;;;2.57;;
18170;SDS011;9210;48.358;10.902;2022-09-09T05:34:25;4.43;;;2.60;;
18170;SDS011;9210;48.358;10.902;2022-09-09T05:36:54;6.03;;;2.63;;
18170;SDS011;9210;48.358;10.902;2022-09-09T05:39:23;6.67;;;2.30;;
18170;SDS011;9210;48.358;10.902;2022-09-09T05:41:51;4.33;;;2.27;;
18170;SDS011;9210;48.358;10.902;2022-09-09T05:44:21;6.27;;;2.47;;
18170;SDS011;9210;48.358;10.902;2022-09-09T05:46:53;6.67;;;2.77;;
18170;SDS011;9210;48.358;10.902;2022-09-09T05:49:22;4.67;;;2.47;;
18170;SDS011;9210;48.358;10.902;2022-09-09T05:51:52;5.20;;;1.83;;
18170;SDS011;9210;48.358;10.902;2022-09-09T05:54:22;5.20;;;1.90;;
18170;SDS011;9210;48.358;10.902;2022-09-09T05:56:51;5.30;;;1.60;;
18170;SDS011;9210;48.358;10.902;2022-09-09T05:59:19;4.60;;;1.70;;
18170;SDS011;9210;48.358;10.902;2022-09-09T06:01:51;7.13;;;1.60;;
18170;SDS011;9210;48.358;10.902;2022-09-09T06:04:25;2.27;;;1.30;;
18170;SDS011;9210;48.358;10.902;2022-09-09T06:06:55;3.47;;;1.60;;
18170;SDS011;9210;48.358;10.902;2022-09-09T06:09:23;4.10;;;1.70;;
18170;SDS011;9210;48.358;10.902;2022-09-09T06:11:52;4.83;;;1.50;;
18170;SDS011;9210;48.358;10.902;2022-09-09T06:14:22;3.87;;;1.50;;
18170;SDS011;9210;48.358;10.902;2022-09-09T06:16:52;2.87;;;1.57;;
18170;SDS011;9210;48.358;10.902;2022-09-09T06:19:22;2.47;;;1.50;;
18170;SDS011;9210;48.358;10.902;2022-09-09T06:21:57;3.70;;;1.47;;
18170;SDS011;9210;48.358;10.902;2022-09-09T06:24:27;4.63;;;1.73;;
18170;SDS011;9210;48.358;10.902;2022-09-09T06:26:57;5.07;;;1.93;;
18170;SDS011;9210;48.358;10.902;2022-09-09T06:29:30;3.93;;;1.67;;
18170;SDS011;9210;48.358;10.902;2022-09-09T06:32:00;6.43;;;2.40;;
18170;SDS011;9210;48.358;10.902;2022-09-09T06:34:29;5.37;;;2.00;;
18170;SDS011;9210;48.358;10.902;2022-09-09T06:37:00;4.17;;;1.97;;
18170;SDS011;9210;48.358;10.902;2022-09-09T06:39:35;5.33;;;2.10;;
18170;SDS011;9210;48.358;10.902;2022-09-09T06:42:03;4.40;;;1.70;;
18170;SDS011;9210;48.358;10.902;2022-09-09T06:44:43;3.17;;;1.70;;
18170;SDS011;9210;48.358;10.902;2022-09-09T06:47:20;5.23;;;2.60;;
18170;SDS011;9210;48.358;10.902;2022-09-09T06:49:49;3.03;;;1.80;;
18170;SDS011;9210;48.358;10.902;2022-09-09T06:52:19;3.67;;;1.93;;
18170;SDS011;9210;48.358;10.902;2022-09-09T06:54:48;4.67;;;1.60;;
18170;SDS011;9210;48.358;10.902;2022-09-09T06:57:20;3.70;;;1.43;;
18170;SDS011;9210;48.358;10.902;2022-09-09T07:00:10;9.43;;;2.30;;
18170;SDS011;9210;48.358;10.902;2022-09-09T07:02:40;6.07;;;1.60;;
18170;SDS011;9210;48.358;10.902;2022-09-09T07:05:09;3.10;;;1.50;;
18170;SDS011;9210;48.358;10.902;2022-09-09T07:07:42;4.40;;;1.60;;
18170;SDS011;9210;48.358;10.902;2022-09-09T07:10:12;5.10;;;1.73;;
18170;SDS011;9210;48.358;10.902;2022-09-09T07:12:43;3.97;;;1.70;;
18170;SDS011;9210;48.358;10.902;2022-09-09T07:15:12;3.67;;;1.50;;
18170;SDS011;9210;48.358;10.902;2022-09-09T07:17:44;5.47;;;1.60;;
18170;SDS011;9210;48.358;10.902;2022-09-09T07:20:15;4.07;;;1.60;;
18170;SDS011;9210;48.358;10.902;2022-09-09T07:22:44;4.20;;;1.60;;
18170;SDS011;9210;48.358;10.902;2022-09-09T07:25:13;3.77;;;1.57;;
18170;SDS011;9210;48.358;10.902;2022-09-09T07:27:45;10.83;;;1.87;;
18170;SDS011;9210;48.358;10.902;2022-09-09T07:30:13;5.57;;;1.60;;
18170;SDS011;9210;48.358;10.902;2022-09-09T07:32:54;3.87;;;1.60;;
18170;SDS011;9210;48.358;10.902;2022-09-09T07:35:24;3.13;;;1.97;;
18170;SDS011;9210;48.358;10.902;2022-09-09T07:37:57;5.93;;;1.60;;
18170;SDS011;9210;48.358;10.902;2022-09-09T07:40:26;7.10;;;1.80;;
18170;SDS011;9210;48.358;10.902;2022-09-09T07:42:56;7.73;;;2.10;;
18170;SDS011;9210;48.358;10.902;2022-09-09T07:45:25;8.40;;;2.30;;
18170;SDS011;9210;48.358;10.902;2022-09-09T07:47:57;13.43;;;3.30;;
18170;SDS011;9210;48.358;10.902;2022-09-09T07:50:26;10.27;;;2.93;;
18170;SDS011;9210;48.358;10.902;2022-09-09T07:52:54;10.60;;;2.03;;
18170;SDS011;9210;48.358;10.902;2022-09-09T07:55:25;8.13;;;2.40;;
18170;SDS011;9210;48.358;10.902;2022-09-09T07:57:55;4.63;;;1.70;;
18170;SDS011;9210;48.358;10.902;2022-09-09T08:00:23;6.50;;;2.03;;
18170;SDS011;9210;48.358;10.902;2022-09-09T08:02:55;6.60;;;1.93;;
18170;SDS011;9210;48.358;10.902;2022-09-09T08:05:25;7.53;;;1.70;;
18170;SDS011;9210;48.358;10.902;2022-09-09T08:07:59;5.03;;;1.70;;
18170;SDS011;9210;48.358;10.902;2022-09-09T08:10:31;7.73;;;1.90;;
18170;SDS011;9210;48.358;10.902;2022-09-09T08:13:00;4.80;;;1.83;;
18170;SDS011;9210;48.358;10.902;2022-09-09T08:15:46;6.63;;;1.93;;
18170;SDS011;9210;48.358;10.902;2022-09-09T08:18:17;5.70;;;1.73;;
18170;SDS011;9210;48.358;10.902;2022-09-09T08:20:46;3.10;;;1.60;;
18170;SDS011;9210;48.358;10.902;2022-09-09T08:23:14;3.13;;;1.53;;
18170;SDS011;9210;48.358;10.902;2022-09-09T08:25:44;5.90;;;1.90;;
18170;SDS011;9210;48.358;10.902;2022-09-09T08:28:15;2.57;;;1.20;;
18170;SDS011;9210;48.358;10.902;2022-09-09T08:30:44;5.17;;;1.53;;
18170;SDS011;9210;48.358;10.902;2022-09-09T08:33:18;7.43;;;2.00;;
18170;SDS011;9210;48.358;10.902;2022-09-09T08:35:49;8.23;;;2.00;;
18170;SDS011;9210;48.358;10.902;2022-09-09T08:38:18;6.65;;;1.90;;
18170;SDS011;9210;48.358;10.902;2022-09-09T08:40:48;5.50;;;1.50;;
18170;SDS011;9210;48.358;10.902;2022-09-09T08:43:20;3.42;;;1.23;;
18170;SDS011;9210;48.358;10.902;2022-09-09T08:45:54;6.13;;;1.30;;
18170;SDS011;9210;48.358;10.902;2022-09-09T08:48:29;4.10;;;1.30;;
18170;SDS011;9210;48.358;10.902;2022-09-09T08:51:03;3.58;;;1.15;;
18170;SDS011;9210;48.358;10.902;2022-09-09T08:53:37;4.65;;;1.10;;
18170;SDS011;9210;48.358;10.902;2022-09-09T08:56:09;3.65;;;1.17;;
18170;SDS011;9210;48.358;10.902;2022-09-09T08:58:44;2.90;;;1.10;;
18170;SDS011;9210;48.358;10.902;2022-09-09T09:01:21;2.00;;;1.10;;
18170;SDS011;9210;48.358;10.902;2022-09-09T09:03:58;3.58;;;1.20;;
18170;SDS011;9210;48.358;10.902;2022-09-09T09:06:33;3.45;;;1.00;;
18170;SDS011;9210;48.358;10.902;2022-09-09T09:09:08;3.83;;;1.00;;
18170;SDS011;9210;48.358;10.902;2022-09-09T09:11:43;3.72;;;1.00;;
18170;SDS011;9210;48.358;10.902;2022-09-09T09:14:15;3.30;;;1.20;;
18170;SDS011;9210;48.358;10.902;2022-09-09T09:16:49;6.32;;;1.23;;
18170;SDS011;9210;48.358;10.902;2022-09-09T09:19:18;2.67;;;0.88;;
18170;SDS011;9210;48.358;10.902;2022-09-09T09:21:50;3.05;;;1.05;;
18170;SDS011;9210;48.358;10.902;2022-09-09T09:24:20;2.28;;;0.88;;
18170;SDS011;9210;48.358;10.902;2022-09-09T09:26:53;2.65;;;1.00;;
18170;SDS011;9210;48.358;10.902;2022-09-09T09:29:23;2.92;;;0.90;;
18170;SDS011;9210;48.358;10.902;2022-09-09T09:31:53;2.90;;;1.00;;
18170;SDS011;9210;48.358;10.902;2022-09-09T09:34:24;2.63;;;1.45;;
18170;SDS011;9210;48.358;10.902;2022-09-09T09:36:55;1.85;;;0.90;;
18170;SDS011;9210;48.358;10.902;2022-09-09T09:39:28;6.57;;;1.02;;
18170;SDS011;9210;48.358;10.902;2022-09-09T09:42:18;2.92;;;1.00;;
18170;SDS011;9210;48.358;10.902;2022-09-09T09:44:51;3.85;;;1.10;;
18170;SDS011;9210;48.358;10.902;2022-09-09T09:47:21;4.88;;;1.10;;
18170;SDS011;9210;48.358;10.902;2022-09-09T09:50:18;3.30;;;0.82;;
18170;SDS011;9210;48.358;10.902;2022-09-09T09:52:55;4.03;;;1.17;;
18170;SDS011;9210;48.358;10.902;2022-09-09T09:55:26;2.20;;;0.90;;
18170;SDS011;9210;48.358;10.902;2022-09-09T09:58:02;3.08;;;1.08;;
18170;SDS011;9210;48.358;10.902;2022-09-09T10:00:33;2.22;;;1.00;;
18170;SDS011;9210;48.358;10.902;2022-09-09T10:03:13;4.57;;;0.90;;
18170;SDS011;9210;48.358;10.902;2022-09-09T10:05:47;2.33;;;0.88;;
18170;SDS011;9210;48.358;10.902;2022-09-09T10:08:16;2.17;;;1.05;;
18170;SDS011;9210;48.358;10.902;2022-09-09T10:10:56;5.72;;;1.13;;
18170;SDS011;9210;48.358;10.902;2022-09-09T10:13:28;2.38;;;0.90;;
18170;SDS011;9210;48.358;10.902;2022-09-09T10:16:02;2.53;;;0.77;;
18170;SDS011;9210;48.358;10.902;2022-09-09T10:18:43;4.20;;;0.90;;
18170;SDS011;9210;48.358;10.902;2022-09-09T10:21:20;5.75;;;1.10;;
18170;SDS011;9210;48.358;10.902;2022-09-09T10:24:12;2.35;;;0.93;;
18170;SDS011;9210;48.358;10.902;2022-09-09T10:26:46;7.45;;;1.33;;
18170;SDS011;9210;48.358;10.902;2022-09-09T10:29:27;5.30;;;1.20;;
18170;SDS011;9210;48.358;10.902;2022-09-09T10:32:00;4.85;;;1.00;;
18170;SDS011;9210;48.358;10.902;2022-09-09T10:34:35;2.97;;;1.10;;
18170;SDS011;9210;48.358;10.902;2022-09-09T10:37:14;2.50;;;1.02;;
18170;SDS011;9210;48.358;10.902;2022-09-09T10:39:48;3.20;;;1.02;;
18170;SDS011;9210;48.358;10.902;2022-09-09T10:42:19;4.40;;;1.23;;
18170;SDS011;9210;48.358;10.902;2022-09-09T10:44:57;2.30;;;1.17;;
18170;SDS011;9210;48.358;10.902;2022-09-09T10:47:41;3.00;;;1.00;;
18170;SDS011;9210;48.358;10.902;2022-09-09T10:50:29;5.22;;;1.02;;
18170;SDS011;9210;48.358;10.902;2022-09-09T10:53:24;6.00;;;1.58;;
18170;SDS011;9210;48.358;10.902;2022-09-09T10:55:56;2.92;;;0.98;;
18170;SDS011;9210;48.358;10.902;2022-09-09T10:58:28;5.50;;;1.73;;
18170;SDS011;9210;48.358;10.902;2022-09-09T11:01:02;3.22;;;1.08;;
18170;SDS011;9210;48.358;10.902;2022-09-09T11:03:34;6.05;;;1.42;;
18170;SDS011;9210;48.358;10.902;2022-09-09T11:06:09;5.90;;;1.10;;
18170;SDS011;9210;48.358;10.902;2022-09-09T11:08:39;5.90;;;1.35;;
18170;SDS011;9210;48.358;10.902;2022-09-09T11:11:09;4.43;;;1.20;;
18170;SDS011;9210;48.358;10.902;2022-09-09T11:13:39;3.75;;;1.27;;
18170;SDS011;9210;48.358;10.902;2022-09-09T11:16:16;6.82;;;1.42;;
18170;SDS011;9210;48.358;10.902;2022-09-09T11:18:47;4.32;;;1.10;;
18170;SDS011;9210;48.358;10.902;2022-09-09T11:21:17;2.92;;;1.00;;
18170;SDS011;9210;48.358;10.902;2022-09-09T11:23:49;5.38;;;1.08;;
18170;SDS011;9210;48.358;10.902;2022-09-09T11:26:23;3.45;;;1.15;;
18170;SDS011;9210;48.358;10.902;2022-09-09T11:28:56;5.38;;;1.10;;
18170;SDS011;9210;48.358;10.902;2022-09-09T11:31:40;4.47;;;1.23;;
18170;SDS011;9210;48.358;10.902;2022-09-09T11:34:24;5.00;;;1.40;;
18170;SDS011;9210;48.358;10.902;2022-09-09T11:36:57;3.38;;;1.10;;
18170;SDS011;9210;48.358;10.902;2022-09-09T11:39:38;2.33;;;1.00;;
18170;SDS011;9210;48.358;10.902;2022-09-09T11:42:15;3.90;;;1.30;;
18170;SDS011;9210;48.358;10.902;2022-09-09T11:44:44;5.43;;;1.20;;
18170;SDS011;9210;48.358;10.902;2022-09-09T11:47:20;3.38;;;1.10;;
18170;SDS011;9210;48.358;10.902;2022-09-09T11:49:50;2.83;;;1.15;;
18170;SDS011;9210;48.358;10.902;2022-09-09T11:52:21;4.25;;;1.20;;
18170;SDS011;9210;48.358;10.902;2022-09-09T11:54:49;3.15;;;0.98;;
18170;SDS011;9210;48.358;10.902;2022-09-09T11:57:25;4.15;;;1.25;;
18170;SDS011;9210;48.358;10.902;2022-09-09T11:59:54;2.83;;;0.95;;
18170;SDS011;9210;48.358;10.902;2022-09-09T12:02:24;5.18;;;1.23;;
18170;SDS011;9210;48.358;10.902;2022-09-09T12:04:57;6.28;;;1.13;;
18170;SDS011;9210;48.358;10.902;2022-09-09T12:07:34;4.45;;;1.25;;
18170;SDS011;9210;48.358;10.902;2022-09-09T12:10:05;4.72;;;1.17;;
18170;SDS011;9210;48.358;10.902;2022-09-09T12:12:47;5.40;;;1.13;;
18170;SDS011;9210;48.358;10.902;2022-09-09T12:15:20;4.93;;;1.02;;
18170;SDS011;9210;48.358;10.902;2022-09-09T12:17:51;4.60;;;1.10;;
18170;SDS011;9210;48.358;10.902;2022-09-09T12:20:26;4.22;;;1.10;;
18170;SDS011;9210;48.358;10.902;2022-09-09T12:28:41;4.80;;;1.30;;
18170;SDS011;9210;48.358;10.902;2022-09-09T12:31:12;4.40;;;1.63;;
18170;SDS011;9210;48.358;10.902;2022-09-09T12:33:46;5.75;;;1.45;;
18170;SDS011;9210;48.358;10.902;2022-09-09T12:36:16;23.67;;;21.42;;
18170;SDS011;9210;48.358;10.902;2022-09-09T12:38:45;80.38;;;69.93;;
18170;SDS011;9210;48.358;10.902;2022-09-09T12:41:18;156.23;;;111.07;;
18170;SDS011;9210;48.358;10.902;2022-09-09T12:43:47;408.15;;;264.98;;
18170;SDS011;9210;48.358;10.902;2022-09-09T12:46:20;312.83;;;251.63;;
18170;SDS011;9210;48.358;10.902;2022-09-09T12:48:51;504.08;;;370.38;;
18170;SDS011;9210;48.358;10.902;2022-09-09T12:51:22;383.50;;;306.25;;
18170;SDS011;9210;48.358;10.902;2022-09-09T12:53:52;510.50;;;443.80;;
18170;SDS011;9210;48.358;10.902;2022-09-09T12:56:21;99.88;;;76.95;;
18170;SDS011;9210;48.358;10.902;2022-09-09T12:58:50;83.07;;;75.65;;
18170;SDS011;9210;48.358;10.902;2022-09-09T13:01:21;8.27;;;3.90;;
18170;SDS011;9210;48.358;10.902;2022-09-09T13:03:51;5.88;;;2.80;;
18170;SDS011;9210;48.358;10.902;2022-09-09T13:06:21;23.42;;;20.25;;
18170;SDS011;9210;48.358;10.902;2022-09-09T13:08:55;9.85;;;5.57;;
18170;SDS011;9210;48.358;10.902;2022-09-09T13:11:26;12.32;;;7.57;;
18170;SDS011;9210;48.358;10.902;2022-09-09T13:13:56;11.60;;;4.78;;
18170;SDS011;9210;48.358;10.902;2022-09-09T13:16:25;9.63;;;4.18;;
18170;SDS011;9210;48.358;10.902;2022-09-09T13:19:02;10.93;;;3.63;;
18170;SDS011;9210;48.358;10.902;2022-09-09T13:21:34;12.82;;;5.65;;
18170;SDS011;9210;48.358;10.902;2022-09-09T13:24:03;72.85;;;29.15;;
18170;SDS011;9210;48.358;10.902;2022-09-09T13:26:34;28.10;;;10.48;;
18170;SDS011;9210;48.358;10.902;2022-09-09T13:29:09;36.63;;;15.15;;
18170;SDS011;9210;48.358;10.902;2022-09-09T13:31:45;104.10;;;58.45;;
18170;SDS011;9210;48.358;10.902;2022-09-09T13:34:25;71.25;;;34.33;;
18170;SDS011;9210;48.358;10.902;2022-09-09T13:36:55;11.23;;;8.30;;
18170;SDS011;9210;48.358;10.902;2022-09-09T13:39:25;61.00;;;32.60;;
18170;SDS011;9210;48.358;10.902;2022-09-09T13:41:53;15.38;;;5.40;;
18170;SDS011;9210;48.358;10.902;2022-09-09T13:44:23;6.53;;;1.13;;
18170;SDS011;9210;48.358;10.902;2022-09-09T13:47:00;5.63;;;1.60;;
18170;SDS011;9210;48.358;10.902;2022-09-09T13:49:36;5.88;;;1.40;;
18170;SDS011;9210;48.358;10.902;2022-09-09T13:52:08;5.95;;;1.70;;
18170;SDS011;9210;48.358;10.902;2022-09-09T13:54:37;7.00;;;1.42;;
18170;SDS011;9210;48.358;10.902;2022-09-09T13:57:11;3.90;;;0.98;;
18170;SDS011;9210;48.358;10.902;2022-09-09T13:59:42;5.78;;;1.60;;
18170;SDS011;9210;48.358;10.902;2022-09-09T14:02:30;3.08;;;1.23;;
18170;SDS011;9210;48.358;10.902;2022-09-09T14:05:00;6.88;;;1.42;;
18170;SDS011;9210;48.358;10.902;2022-09-09T14:07:28;5.32;;;1.10;;
18170;SDS011;9210;48.358;10.902;2022-09-09T14:09:58;5.72;;;1.40;;
18170;SDS011;9210;48.358;10.902;2022-09-09T14:12:27;8.13;;;1.13;;
18170;SDS011;9210;48.358;10.902;2022-09-09T14:14:55;8.95;;;1.50;;
18170;SDS011;9210;48.358;10.902;2022-09-09T14:17:23;14.25;;;2.20;;
18170;SDS011;9210;48.358;10.902;2022-09-09T14:19:55;13.82;;;3.00;;
18170;SDS011;9210;48.358;10.902;2022-09-09T14:22:25;8.87;;;2.30;;
18170;SDS011;9210;48.358;10.902;2022-09-09T14:24:54;8.20;;;2.30;;
18170;SDS011;9210;48.358;10.902;2022-09-09T14:27:23;6.37;;;2.00;;
18170;SDS011;9210;48.358;10.902;2022-09-09T14:29:53;5.33;;;1.77;;
18170;SDS011;9210;48.358;10.902;2022-09-09T14:32:21;4.90;;;1.67;;
18170;SDS011;9210;48.358;10.902;2022-09-09T14:34:50;3.47;;;1.40;;
18170;SDS011;9210;48.358;10.902;2022-09-09T14:37:18;5.20;;;1.27;;
18170;SDS011;9210;48.358;10.902;2022-09-09T14:39:48;5.83;;;1.47;;
18170;SDS011;9210;48.358;10.902;2022-09-09T14:42:17;5.73;;;1.77;;
18170;SDS011;9210;48.358;10.902;2022-09-09T14:44:46;3.87;;;1.77;;
18170;SDS011;9210;48.358;10.902;2022-09-09T14:47:15;4.03;;;1.63;;
18170;SDS011;9210;48.358;10.902;2022-09-09T14:49:44;4.57;;;1.80;;
18170;SDS011;9210;48.358;10.902;2022-09-09T14:52:16;5.00;;;1.57;;
18170;SDS011;9210;48.358;10.902;2022-09-09T14:54:44;5.87;;;2.27;;
18170;SDS011;9210;48.358;10.902;2022-09-09T14:57:14;4.27;;;1.90;;
18170;SDS011;9210;48.358;10.902;2022-09-09T14:59:43;4.00;;;1.83;;
18170;SDS011;9210;48.358;10.902;2022-09-09T15:02:11;5.50;;;2.20;;
18170;SDS011;9210;48.358;10.902;2022-09-09T15:04:40;4.90;;;1.90;;
18170;SDS011;9210;48.358;10.902;2022-09-09T15:07:09;5.17;;;2.00;;
18170;SDS011;9210;48.358;10.902;2022-09-09T15:09:38;5.57;;;2.27;;
18170;SDS011;9210;48.358;10.902;2022-09-09T15:12:06;4.90;;;2.33;;
18170;SDS011;9210;48.358;10.902;2022-09-09T15:14:36;7.90;;;2.40;;
18170;SDS011;9210;48.358;10.902;2022-09-09T15:17:04;6.23;;;1.70;;
18170;SDS011;9210;48.358;10.902;2022-09-09T15:19:33;4.03;;;1.57;;
18170;SDS011;9210;48.358;10.902;2022-09-09T15:22:02;5.03;;;1.60;;
18170;SDS011;9210;48.358;10.902;2022-09-09T15:24:31;4.63;;;1.80;;
18170;SDS011;9210;48.358;10.902;2022-09-09T15:26:59;6.80;;;1.40;;